Terminal Aerodrome Forecast
Issued by NWS Bismarck, ND

Home | Current Version | Previous Version | Graphics & Text | Print | Product List | Glossary On
Versions: 1 2 3 4 5 6 7 8 9 10 11 12 13 14 15 16 17 18 19 20 21 22
000
FTUS43 KBIS 271500 AAB
TAFISN
TAF AMD
KISN 271505Z 2715/2812 36006KT P6SM SCT015 BKN035
     FM271800 04005KT P6SM SCT035
     FM272100 02006KT P6SM FEW050
     FM280300 05004KT P6SM SKC=

USA.gov is the U.S. government's official web portal to all federal, state and local government web resources and services.